Time;durP1;ratioP1;P1;durP2;ratioP2;P2;SDS_P1;SDS_P2;PMS_P1;PMS_P2;Temp;Humidity;BMP_temperature;BMP_pressure;BME280_temperature;BME280_humidity;BME280_pressure;Samples;Min_cycle;Max_cycle;Signal;HPM_P1;HPM_P2
2021/04/28 00:02:11;;;;;;;4.67;3.80;;;6.20;99.90;;;;;;5116447;28;20203;-52
2021/04/28 00:04:38;;;;;;;5.73;4.00;;;6.00;99.90;;;;;;5111102;28;20205;-52
2021/04/28 00:07:05;;;;;;;4.47;3.70;;;6.00;99.90;;;;;;5095946;28;20202;-55
2021/04/28 00:09:32;;;;;;;8.90;4.07;;;6.10;99.90;;;;;;5095909;28;20260;-54
2021/04/28 00:12:00;;;;;;;4.30;3.73;;;6.00;99.90;;;;;;5095503;28;20289;-57
2021/04/28 00:14:27;;;;;;;5.40;3.50;;;6.10;99.90;;;;;;5095330;28;20744;-54
2021/04/28 00:16:54;;;;;;;6.17;3.83;;;6.10;99.90;;;;;;5095608;28;20559;-56
2021/04/28 00:19:22;;;;;;;5.57;4.07;;;6.10;99.90;;;;;;5095388;28;20205;-56
2021/04/28 00:21:49;;;;;;;5.40;3.90;;;6.10;99.90;;;;;;5095475;28;20244;-55
2021/04/28 00:24:17;;;;;;;5.60;3.70;;;6.00;99.90;;;;;;5095370;28;20207;-55
2021/04/28 00:26:44;;;;;;;6.00;3.97;;;6.00;99.90;;;;;;5095779;28;20209;-53
2021/04/28 00:29:11;;;;;;;4.43;3.90;;;6.00;99.90;;;;;;5095279;28;20252;-55
2021/04/28 00:31:37;;;;;;;4.90;4.10;;;6.00;99.90;;;;;;5095382;28;20221;-53
2021/04/28 00:34:05;;;;;;;4.63;4.10;;;6.00;99.90;;;;;;5095332;28;20207;-54
2021/04/28 00:36:32;;;;;;;5.90;3.97;;;6.00;99.90;;;;;;5095443;28;20293;-53
2021/04/28 00:38:59;;;;;;;4.70;4.00;;;6.00;99.90;;;;;;5095361;28;20302;-55
2021/04/28 00:41:26;;;;;;;5.60;4.27;;;6.00;99.90;;;;;;5094068;28;20289;-55
2021/04/28 00:43:54;;;;;;;8.23;3.90;;;5.90;99.90;;;;;;5095079;28;20212;-55
2021/04/28 00:46:24;;;;;;;5.60;3.83;;;5.80;99.90;;;;;;5094913;28;20187;-55
2021/04/28 00:48:51;;;;;;;5.50;4.23;;;5.70;99.90;;;;;;5094900;28;20664;-57
2021/04/28 00:51:19;;;;;;;4.60;3.70;;;5.70;99.90;;;;;;5095148;28;20718;-55
2021/04/28 00:53:47;;;;;;;4.10;3.70;;;5.70;99.90;;;;;;5095352;28;20211;-56
2021/04/28 00:56:14;;;;;;;5.67;4.33;;;5.70;99.90;;;;;;5094640;28;20793;-56
2021/04/28 00:58:41;;;;;;;5.50;4.03;;;5.60;99.90;;;;;;5094738;28;20205;-56
2021/04/28 01:01:08;;;;;;;6.37;4.17;;;5.50;99.90;;;;;;5095000;28;20201;-51
2021/04/28 01:03:35;;;;;;;6.30;3.67;;;5.50;99.90;;;;;;5094640;28;20196;-54
2021/04/28 01:06:06;;;;;;;5.00;3.90;;;5.40;99.90;;;;;;5113130;28;20265;-56
2021/04/28 01:08:34;;;;;;;6.23;4.03;;;5.40;99.90;;;;;;5116884;28;20189;-52
2021/04/28 01:11:03;;;;;;;5.57;3.77;;;5.30;99.90;;;;;;5115016;28;20548;-54
2021/04/28 01:13:30;;;;;;;6.60;3.83;;;5.40;99.90;;;;;;5114732;28;20761;-55
2021/04/28 01:15:57;;;;;;;5.00;4.00;;;5.40;99.90;;;;;;5114437;28;20231;-54
2021/04/28 01:18:24;;;;;;;4.40;3.83;;;5.40;99.90;;;;;;5114915;28;20197;-53
2021/04/28 01:20:51;;;;;;;6.00;4.13;;;5.40;99.90;;;;;;5114600;28;20908;-55
2021/04/28 01:23:20;;;;;;;4.50;3.90;;;5.40;99.90;;;;;;5114973;28;20290;-53
2021/04/28 01:25:50;;;;;;;5.07;4.20;;;5.40;99.90;;;;;;5114509;28;20222;-57
2021/04/28 01:28:20;;;;;;;5.50;4.00;;;5.20;99.90;;;;;;5114766;28;20304;-55
2021/04/28 01:30:51;;;;;;;5.00;4.10;;;5.30;99.90;;;;;;5114717;28;20226;-56
2021/04/28 01:33:22;;;;;;;5.30;4.30;;;5.30;99.90;;;;;;5114711;28;20228;-55
2021/04/28 01:35:52;;;;;;;6.60;4.77;;;5.30;99.90;;;;;;5115081;28;20273;-53
2021/04/28 01:38:21;;;;;;;6.10;3.90;;;5.20;99.90;;;;;;5114922;28;20289;-51
2021/04/28 01:40:50;;;;;;;8.23;4.67;;;5.30;99.90;;;;;;5114433;28;20287;-56
2021/04/28 01:43:19;;;;;;;6.70;4.40;;;5.30;99.90;;;;;;5114486;28;20288;-55
2021/04/28 01:45:49;;;;;;;4.97;3.83;;;5.20;99.90;;;;;;5114163;28;20195;-55
2021/04/28 01:48:16;;;;;;;5.43;4.40;;;5.20;99.90;;;;;;5114333;28;20220;-54
2021/04/28 01:50:44;;;;;;;5.10;4.20;;;5.20;99.90;;;;;;5113992;28;20250;-55
2021/04/28 01:53:13;;;;;;;10.03;4.60;;;5.20;99.90;;;;;;5113549;28;20305;-56
2021/04/28 01:55:41;;;;;;;5.30;4.30;;;5.10;99.90;;;;;;5113971;28;20643;-55
2021/04/28 01:58:08;;;;;;;5.77;4.37;;;5.10;99.90;;;;;;5114266;28;20205;-54
2021/04/28 02:00:36;;;;;;;6.40;4.27;;;5.00;99.90;;;;;;5114083;28;20283;-54
2021/04/28 02:03:03;;;;;;;6.10;4.33;;;5.00;99.90;;;;;;5113997;28;20197;-53
2021/04/28 02:05:30;;;;;;;4.50;3.90;;;5.00;99.90;;;;;;5101369;28;20234;-53
2021/04/28 02:07:57;;;;;;;5.13;4.47;;;4.90;99.90;;;;;;5093707;28;20202;-54
2021/04/28 02:10:24;;;;;;;5.83;4.13;;;4.90;99.90;;;;;;5093446;28;20282;-53
2021/04/28 02:12:53;;;;;;;5.57;3.97;;;4.80;99.90;;;;;;5093123;28;20219;-54
2021/04/28 02:15:24;;;;;;;5.37;4.30;;;4.80;99.90;;;;;;5093255;28;20228;-56
2021/04/28 02:17:53;;;;;;;5.40;4.17;;;4.80;99.90;;;;;;5093669;28;20181;-56
2021/04/28 02:20:21;;;;;;;5.07;4.30;;;4.80;99.90;;;;;;5093267;28;20686;-52
2021/04/28 02:22:49;;;;;;;6.17;4.30;;;4.80;99.90;;;;;;5093289;28;20200;-56
2021/04/28 02:25:17;;;;;;;6.00;4.87;;;4.80;99.90;;;;;;5093637;28;20203;-55
2021/04/28 02:27:45;;;;;;;5.40;4.50;;;4.70;99.90;;;;;;5093212;28;20588;-54
2021/04/28 02:30:15;;;;;;;5.30;4.03;;;4.70;99.90;;;;;;5093270;28;20200;-54
2021/04/28 02:32:43;;;;;;;6.53;4.43;;;4.70;99.90;;;;;;5093020;28;20213;-54
2021/04/28 02:35:13;;;;;;;6.47;4.60;;;4.70;99.90;;;;;;5093411;28;20233;-53
2021/04/28 02:37:41;;;;;;;6.33;4.20;;;4.70;99.90;;;;;;5093382;28;20286;-55
2021/04/28 02:40:11;;;;;;;5.03;4.17;;;4.70;99.90;;;;;;5093348;28;20287;-54
2021/04/28 02:42:39;;;;;;;6.63;4.20;;;4.60;99.90;;;;;;5093188;28;20314;-55
2021/04/28 02:45:08;;;;;;;5.47;4.30;;;4.60;99.90;;;;;;5093045;28;20675;-55
2021/04/28 02:47:38;;;;;;;7.27;4.53;;;4.60;99.90;;;;;;5092990;28;20196;-55
2021/04/28 02:50:06;;;;;;;5.47;4.30;;;4.50;99.90;;;;;;5093121;28;20184;-53
2021/04/28 02:52:34;;;;;;;6.80;4.50;;;4.40;99.90;;;;;;5092933;28;20309;-56
2021/04/28 02:55:01;;;;;;;5.60;4.57;;;4.40;99.90;;;;;;5092523;28;20298;-56
2021/04/28 02:57:29;;;;;;;5.27;4.53;;;4.40;99.90;;;;;;5092900;28;20228;-55
2021/04/28 02:59:56;;;;;;;6.50;4.43;;;4.50;99.90;;;;;;5092688;28;20225;-54
2021/04/28 03:02:23;;;;;;;8.43;4.57;;;4.50;99.90;;;;;;5092498;28;20726;-54
2021/04/28 03:04:52;;;;;;;6.57;4.40;;;4.50;99.90;;;;;;5102459;28;20223;-55
2021/04/28 03:07:20;;;;;;;5.40;4.40;;;4.50;99.90;;;;;;5117157;28;20728;-55
2021/04/28 03:09:46;;;;;;;6.17;4.07;;;4.40;99.90;;;;;;5117209;28;20636;-52
2021/04/28 03:12:15;;;;;;;6.83;4.27;;;4.40;99.90;;;;;;5117419;28;20338;-56
2021/04/28 03:14:42;;;;;;;6.37;4.73;;;4.40;99.90;;;;;;5116900;28;20348;-54
2021/04/28 03:17:09;;;;;;;5.10;4.00;;;4.40;99.90;;;;;;5117035;28;20629;-56
2021/04/28 03:19:37;;;;;;;6.97;4.93;;;4.50;99.90;;;;;;5117352;28;20212;-57
2021/04/28 03:22:05;;;;;;;7.93;4.70;;;4.50;99.90;;;;;;5117222;28;20207;-53
2021/04/28 03:24:32;;;;;;;6.00;4.50;;;4.40;99.90;;;;;;5117294;28;20631;-54
2021/04/28 03:27:09;;;;;;;7.63;4.50;;;4.40;99.90;;;;;;5116937;28;20206;-53
2021/04/28 03:29:36;;;;;;;4.40;4.00;;;4.40;99.90;;;;;;5116808;28;20219;-55
2021/04/28 03:32:04;;;;;;;5.80;4.37;;;4.40;99.90;;;;;;5117142;28;20226;-52
2021/04/28 03:34:33;;;;;;;6.13;4.60;;;4.30;99.90;;;;;;5116911;28;20199;-54
2021/04/28 03:37:01;;;;;;;6.70;4.93;;;4.30;99.90;;;;;;5116864;28;20294;-54
2021/04/28 03:39:29;;;;;;;8.53;5.87;;;4.20;99.90;;;;;;5116424;28;20240;-56
2021/04/28 03:41:56;;;;;;;8.03;5.07;;;4.20;99.90;;;;;;5116711;28;20283;-53
2021/04/28 03:44:23;;;;;;;7.43;5.20;;;4.20;99.90;;;;;;5116231;28;20208;-50
2021/04/28 03:46:50;;;;;;;8.00;5.10;;;4.10;99.90;;;;;;5117076;28;20197;-56
2021/04/28 03:49:17;;;;;;;7.37;5.03;;;4.00;99.90;;;;;;5116550;28;20205;-52
2021/04/28 03:51:45;;;;;;;8.50;4.53;;;4.00;99.90;;;;;;5116806;28;20286;-52
2021/04/28 03:54:14;;;;;;;6.47;4.87;;;4.00;99.90;;;;;;5116404;28;20233;-52
2021/04/28 03:56:42;;;;;;;8.27;5.10;;;4.00;99.90;;;;;;5116391;28;20342;-60
2021/04/28 03:59:10;;;;;;;8.70;4.80;;;4.00;99.90;;;;;;5116452;28;20199;-55
2021/04/28 04:01:38;;;;;;;5.80;4.93;;;4.00;99.90;;;;;;5116300;28;20238;-55
2021/04/28 04:04:05;;;;;;;7.20;4.97;;;4.00;99.90;;;;;;5115889;28;20210;-54
2021/04/28 04:06:37;;;;;;;6.07;4.70;;;4.10;99.90;;;;;;5095525;28;20223;-56
2021/04/28 04:09:05;;;;;;;6.03;4.70;;;4.20;99.90;;;;;;5096003;28;20207;-57
2021/04/28 04:11:32;;;;;;;6.50;4.97;;;4.20;99.90;;;;;;5095605;28;20661;-54
2021/04/28 04:14:00;;;;;;;7.47;4.57;;;4.20;99.90;;;;;;5095554;28;20277;-57
2021/04/28 04:16:26;;;;;;;7.50;5.00;;;4.20;99.90;;;;;;5095068;28;20189;-55
2021/04/28 04:18:53;;;;;;;8.87;4.80;;;4.20;99.90;;;;;;5095512;28;20202;-55
2021/04/28 04:21:20;;;;;;;5.47;4.60;;;4.30;99.90;;;;;;5095736;28;20238;-54
2021/04/28 04:23:47;;;;;;;6.53;4.87;;;4.20;99.90;;;;;;5095302;28;20230;-55
2021/04/28 04:26:14;;;;;;;7.47;4.90;;;4.20;99.90;;;;;;5095619;28;20201;-53
2021/04/28 04:28:41;;;;;;;5.73;4.77;;;4.30;99.90;;;;;;5095546;28;20286;-54
2021/04/28 04:31:09;;;;;;;8.10;5.43;;;4.40;99.90;;;;;;5095328;28;20283;-55
2021/04/28 04:33:36;;;;;;;9.73;5.00;;;4.40;99.90;;;;;;5095154;28;20259;-54
2021/04/28 04:36:03;;;;;;;6.50;5.37;;;4.40;99.90;;;;;;5094837;28;20232;-55
2021/04/28 04:38:30;;;;;;;7.43;5.43;;;4.50;99.90;;;;;;5095208;28;20247;-55
2021/04/28 04:40:57;;;;;;;7.50;5.30;;;4.50;99.90;;;;;;5095313;28;20199;-56
2021/04/28 04:43:24;;;;;;;7.80;5.63;;;4.60;99.90;;;;;;5095244;28;20221;-54
2021/04/28 04:45:50;;;;;;;7.93;5.30;;;4.70;99.90;;;;;;5095075;28;20207;-54
2021/04/28 04:48:19;;;;;;;6.70;5.20;;;4.70;99.90;;;;;;5095277;28;20382;-55
2021/04/28 04:50:46;;;;;;;6.50;5.27;;;4.70;99.90;;;;;;5095076;28;20287;-52
2021/04/28 04:53:13;;;;;;;8.17;5.70;;;4.70;99.90;;;;;;5094751;28;20222;-53
2021/04/28 04:55:40;;;;;;;7.00;5.07;;;4.90;99.90;;;;;;5094909;28;20256;-56
2021/04/28 04:58:07;;;;;;;7.17;4.97;;;5.00;99.90;;;;;;5094720;28;20306;-54
2021/04/28 05:00:34;;;;;;;7.40;5.87;;;5.00;99.90;;;;;;5094497;28;20216;-56
2021/04/28 05:03:01;;;;;;;8.17;5.77;;;5.20;99.90;;;;;;5094738;28;20222;-58
2021/04/28 05:05:29;;;;;;;8.03;5.70;;;5.30;99.90;;;;;;5106065;28;20205;-53
2021/04/28 05:07:57;;;;;;;7.23;5.57;;;5.50;99.90;;;;;;5114726;28;20731;-56
2021/04/28 05:10:24;;;;;;;7.80;5.90;;;5.80;99.90;;;;;;5115102;28;20298;-58
2021/04/28 05:12:50;;;;;;;8.50;5.23;;;6.10;99.90;;;;;;5114551;28;20225;-55
2021/04/28 05:15:18;;;;;;;7.87;5.43;;;6.30;99.90;;;;;;5114574;28;20319;-55
2021/04/28 05:17:45;;;;;;;8.07;4.97;;;6.50;99.90;;;;;;5115035;28;20201;-54
2021/04/28 05:20:14;;;;;;;6.40;5.17;;;6.50;99.90;;;;;;5114900;28;20299;-54
2021/04/28 05:22:42;;;;;;;8.03;5.50;;;6.70;99.90;;;;;;5114355;28;20697;-56
2021/04/28 05:25:12;;;;;;;9.27;5.30;;;6.70;99.90;;;;;;5115364;28;20189;-53
2021/04/28 05:27:39;;;;;;;10.53;5.80;;;6.90;99.90;;;;;;5117862;28;20227;-55
2021/04/28 05:30:08;;;;;;;6.80;5.20;;;7.00;99.90;;;;;;5114607;28;20197;-55
2021/04/28 05:32:36;;;;;;;8.37;5.37;;;7.10;99.90;;;;;;5115183;28;20761;-56
2021/04/28 05:35:03;;;;;;;7.67;6.10;;;7.30;99.90;;;;;;5115046;28;20206;-56
2021/04/28 05:37:30;;;;;;;7.53;5.70;;;7.40;99.90;;;;;;5114818;28;20300;-57
2021/04/28 05:39:58;;;;;;;6.30;5.33;;;7.50;99.90;;;;;;5114720;28;20251;-57
2021/04/28 05:42:25;;;;;;;8.57;6.33;;;7.60;99.90;;;;;;5114509;28;20363;-56
2021/04/28 05:44:52;;;;;;;9.50;5.77;;;7.60;99.90;;;;;;5113901;28;20212;-52
2021/04/28 05:47:19;;;;;;;7.97;5.97;;;7.80;99.90;;;;;;5113295;28;20729;-54
2021/04/28 05:49:47;;;;;;;10.53;6.77;;;7.90;99.90;;;;;;5114647;28;20203;-55
2021/04/28 05:52:14;;;;;;;8.17;6.23;;;8.10;99.90;;;;;;5114302;28;20574;-56
2021/04/28 05:54:41;;;;;;;8.87;6.17;;;8.30;99.90;;;;;;5113747;28;20204;-54
2021/04/28 05:57:31;;;;;;;10.23;6.23;;;8.40;99.90;;;;;;5113989;28;20199;-55
2021/04/28 05:59:58;;;;;;;8.90;6.37;;;8.50;99.90;;;;;;5112490;28;20199;-55
2021/04/28 06:02:25;;;;;;;8.87;6.47;;;8.60;99.90;;;;;;5110047;28;20206;-55
2021/04/28 06:04:53;;;;;;;8.87;6.00;;;8.50;99.90;;;;;;5103282;28;20224;-56
2021/04/28 06:07:20;;;;;;;7.03;5.27;;;8.60;99.90;;;;;;5090065;28;20203;-54
2021/04/28 06:09:47;;;;;;;7.00;6.20;;;8.50;99.90;;;;;;5090076;28;20214;-55
2021/04/28 06:12:13;;;;;;;8.47;6.60;;;8.60;99.90;;;;;;5106047;28;20287;-55
2021/04/28 06:14:41;;;;;;;9.53;6.47;;;8.80;99.90;;;;;;5110324;28;20231;-55
2021/04/28 06:17:10;;;;;;;9.47;6.27;;;8.90;99.90;;;;;;5110294;28;20302;-54
2021/04/28 06:19:37;;;;;;;8.97;6.50;;;9.00;99.90;;;;;;5110049;28;20214;-57
2021/04/28 06:22:04;;;;;;;9.27;6.77;;;9.00;99.90;;;;;;5110241;28;20203;-54
2021/04/28 06:24:36;;;;;;;9.30;6.40;;;9.10;99.90;;;;;;5101144;28;20521;-52
2021/04/28 06:27:03;;;;;;;9.90;6.80;;;9.10;99.90;;;;;;5107954;28;20625;-52
2021/04/28 06:29:30;;;;;;;8.80;6.97;;;9.10;99.90;;;;;;5090283;28;20566;-54
2021/04/28 06:31:58;;;;;;;11.10;7.10;;;9.20;99.90;;;;;;5095152;28;20200;-55
2021/04/28 06:34:26;;;;;;;10.33;7.17;;;9.30;99.90;;;;;;5110283;28;20216;-52
2021/04/28 06:36:53;;;;;;;9.67;6.80;;;9.50;99.90;;;;;;5110324;28;20625;-57
2021/04/28 06:39:20;;;;;;;10.03;7.37;;;9.60;99.90;;;;;;5110282;28;20298;-57
2021/04/28 06:41:47;;;;;;;10.57;7.43;;;9.70;99.90;;;;;;5093953;28;20344;-55
2021/04/28 06:44:14;;;;;;;10.57;7.87;;;9.80;99.90;;;;;;5090082;28;20227;-55
2021/04/28 06:46:41;;;;;;;11.10;7.80;;;9.90;99.90;;;;;;5089174;28;20689;-53
2021/04/28 06:49:09;;;;;;;9.90;8.03;;;10.00;99.90;;;;;;5089528;28;20282;-57
2021/04/28 06:51:36;;;;;;;12.20;7.80;;;10.00;99.90;;;;;;5089554;28;20227;-57
2021/04/28 06:54:03;;;;;;;10.03;7.60;;;10.10;99.90;;;;;;5089541;28;20251;-56
2021/04/28 06:56:31;;;;;;;10.53;7.50;;;10.10;99.90;;;;;;5089566;28;20243;-54
2021/04/28 06:58:58;;;;;;;11.87;7.90;;;10.00;99.90;;;;;;5106597;28;20286;-50
2021/04/28 07:01:25;;;;;;;10.73;7.17;;;10.00;99.90;;;;;;5109502;28;20496;-52
2021/04/28 07:03:52;;;;;;;11.27;8.03;;;10.10;99.90;;;;;;5109342;28;20245;-54
2021/04/28 07:06:20;;;;;;;10.30;7.70;;;10.10;99.90;;;;;;5109820;28;20205;-57
2021/04/28 07:08:47;;;;;;;9.33;7.80;;;10.20;99.90;;;;;;5109934;28;20207;-55
2021/04/28 07:11:14;;;;;;;8.93;7.87;;;10.20;99.90;;;;;;5109889;28;20306;-55
2021/04/28 07:13:41;;;;;;;12.00;8.40;;;10.40;99.90;;;;;;5109724;28;20222;-54
2021/04/28 07:16:07;;;;;;;9.40;7.83;;;10.50;99.90;;;;;;5109735;28;20283;-54
2021/04/28 07:18:34;;;;;;;12.10;8.97;;;10.60;99.90;;;;;;5109806;28;20207;-55
2021/04/28 07:21:03;;;;;;;11.30;7.90;;;10.70;99.90;;;;;;5109548;28;20210;-55
2021/04/28 07:23:31;;;;;;;13.33;8.17;;;10.70;99.90;;;;;;5109567;28;20209;-54
2021/04/28 07:25:58;;;;;;;12.47;8.70;;;10.80;99.90;;;;;;5109563;28;20313;-55
2021/04/28 07:28:25;;;;;;;12.20;8.77;;;10.90;99.90;;;;;;5109878;28;20294;-55
2021/04/28 07:30:52;;;;;;;11.20;9.10;;;11.00;99.90;;;;;;5109222;28;20202;-52
2021/04/28 07:33:19;;;;;;;12.70;9.20;;;11.00;99.90;;;;;;5090387;28;20306;-56
2021/04/28 07:35:46;;;;;;;13.10;8.33;;;11.10;99.90;;;;;;5088464;28;20687;-54
2021/04/28 07:38:12;;;;;;;13.17;8.97;;;11.10;99.90;;;;;;5089063;28;20303;-57
2021/04/28 07:40:41;;;;;;;14.57;9.00;;;11.10;99.90;;;;;;5089151;28;20204;-54
2021/04/28 07:43:07;;;;;;;12.40;8.93;;;11.20;99.90;;;;;;5088921;28;20196;-55
2021/04/28 07:45:35;;;;;;;11.20;9.10;;;11.30;99.90;;;;;;5089356;28;20235;-56
2021/04/28 07:48:05;;;;;;;11.27;8.87;;;11.20;99.90;;;;;;5088999;28;20607;-55
2021/04/28 07:50:32;;;;;;;14.47;9.10;;;11.20;99.90;;;;;;5091136;28;20280;-51
2021/04/28 07:52:59;;;;;;;12.17;9.37;;;11.20;99.90;;;;;;5092779;28;20247;-50
2021/04/28 07:55:26;;;;;;;14.10;9.70;;;11.40;99.90;;;;;;5093387;28;20586;-52
2021/04/28 07:57:54;;;;;;;13.70;9.90;;;11.40;99.90;;;;;;5093416;28;20294;-55
2021/04/28 08:00:21;;;;;;;13.70;9.27;;;11.50;99.90;;;;;;5092596;28;20300;-56
2021/04/28 08:02:48;;;;;;;12.10;9.40;;;11.60;99.90;;;;;;5092557;28;20286;-54
2021/04/28 08:05:15;;;;;;;12.13;9.23;;;11.60;99.90;;;;;;5092530;28;20203;-52
2021/04/28 08:07:42;;;;;;;12.80;9.07;;;11.70;99.90;;;;;;5092903;28;20283;-54
2021/04/28 08:10:10;;;;;;;17.77;11.50;;;11.80;99.90;;;;;;5092594;28;20232;-54
2021/04/28 08:12:38;;;;;;;12.73;9.00;;;11.80;99.90;;;;;;5091867;28;20211;-55
2021/04/28 08:15:08;;;;;;;14.20;9.83;;;12.00;99.90;;;;;;5092215;28;20263;-55
2021/04/28 08:17:35;;;;;;;12.57;9.93;;;12.10;99.90;;;;;;5092276;28;20236;-55
2021/04/28 08:20:04;;;;;;;13.73;10.30;;;12.10;99.90;;;;;;5092385;28;20203;-58
2021/04/28 08:22:33;;;;;;;12.70;9.77;;;12.30;99.90;;;;;;5092213;28;20199;-55
2021/04/28 08:25:01;;;;;;;10.30;8.93;;;12.40;99.90;;;;;;5092442;28;20272;-56
2021/04/28 08:27:27;;;;;;;11.43;9.30;;;12.50;99.90;;;;;;5092226;28;20291;-57
2021/04/28 08:29:56;;;;;;;12.73;9.53;;;12.60;99.90;;;;;;5092222;28;20299;-59
2021/04/28 08:32:24;;;;;;;12.17;9.37;;;12.70;99.90;;;;;;5102795;28;20742;-56
2021/04/28 08:34:51;;;;;;;12.47;9.70;;;12.80;99.90;;;;;;5112091;28;20318;-54
2021/04/28 08:37:19;;;;;;;12.80;9.90;;;13.00;99.90;;;;;;5112374;28;20207;-55
2021/04/28 08:39:47;;;;;;;13.07;10.00;;;13.00;99.90;;;;;;5112168;28;20227;-55
2021/04/28 08:42:15;;;;;;;10.67;9.37;;;13.00;99.90;;;;;;5112544;28;20234;-55
2021/04/28 08:44:43;;;;;;;13.53;10.30;;;13.10;99.90;;;;;;5111920;28;20225;-56
2021/04/28 08:47:10;;;;;;;14.43;10.40;;;13.20;99.90;;;;;;5111917;28;20291;-55
2021/04/28 08:49:38;;;;;;;13.77;10.57;;;13.30;99.90;;;;;;5112059;28;20239;-55
2021/04/28 08:52:06;;;;;;;17.47;10.27;;;13.30;99.90;;;;;;5111741;28;20723;-54
2021/04/28 08:54:46;;;;;;;12.83;9.13;;;13.40;99.90;;;;;;5111584;28;20705;-50
2021/04/28 08:57:13;;;;;;;14.40;10.40;;;13.50;99.90;;;;;;5111651;28;20294;-55
2021/04/28 08:59:41;;;;;;;12.80;9.70;;;13.50;99.90;;;;;;5111183;28;20884;-55
2021/04/28 09:02:21;;;;;;;12.37;10.20;;;13.40;99.90;;;;;;5109636;28;20794;-56
2021/04/28 09:05:07;;;;;;;12.07;10.30;;;13.50;99.90;;;;;;5111165;28;20188;-56
2021/04/28 09:07:35;;;;;;;12.43;9.83;;;13.50;99.90;;;;;;5111239;28;20184;-56
2021/04/28 09:10:06;;;;;;;13.90;10.50;;;13.60;99.90;;;;;;5110655;28;20667;-57
2021/04/28 09:12:33;;;;;;;14.57;10.63;;;13.60;99.90;;;;;;5111297;28;20502;-55
2021/04/28 09:15:01;;;;;;;16.47;11.10;;;13.60;99.90;;;;;;5110926;28;20602;-56
2021/04/28 09:17:28;;;;;;;11.07;9.80;;;13.60;99.90;;;;;;5111111;28;20203;-55
2021/04/28 09:20:16;;;;;;;14.40;11.13;;;13.60;99.90;;;;;;5110954;28;20670;-59
2021/04/28 09:22:49;;;;;;;12.90;10.87;;;13.70;99.90;;;;;;5111542;28;20207;-53
2021/04/28 09:25:41;;;;;;;11.60;10.10;;;13.80;99.90;;;;;;5111635;28;20179;-54
2021/04/28 09:28:23;;;;;;;11.47;9.70;;;13.90;99.90;;;;;;5111566;28;20199;-56
2021/04/28 09:30:56;;;;;;;13.85;10.93;;;14.00;99.90;;;;;;5111044;28;20217;-55
2021/04/28 09:33:22;;;;;;;13.17;11.57;;;14.10;99.90;;;;;;5091467;28;20295;-55
2021/04/28 09:35:59;;;;;;;12.53;10.70;;;14.20;99.90;;;;;;5091021;28;20214;-53
2021/04/28 09:38:26;;;;;;;13.47;10.67;;;14.20;99.90;;;;;;5090760;28;20191;-57
2021/04/28 09:40:56;;;;;;;13.00;11.50;;;14.20;99.90;;;;;;5090817;28;20200;-56
2021/04/28 09:43:35;;;;;;;12.37;11.07;;;14.40;99.90;;;;;;5090504;28;20204;-55
2021/04/28 09:46:02;;;;;;;14.70;11.80;;;14.30;99.90;;;;;;5090632;28;20223;-55
2021/04/28 09:48:30;;;;;;;12.90;11.50;;;14.30;99.90;;;;;;5090457;28;20210;-56
2021/04/28 09:51:05;;;;;;;11.87;10.57;;;14.40;99.90;;;;;;5090780;28;20207;-56
2021/04/28 09:53:32;;;;;;;14.95;11.70;;;14.40;99.90;;;;;;5090830;28;20204;-54
2021/04/28 09:56:00;;;;;;;13.10;11.33;;;14.30;99.90;;;;;;5090664;28;20253;-55
2021/04/28 09:58:48;;;;;;;15.83;11.60;;;14.40;99.90;;;;;;5090588;28;20288;-55
2021/04/28 10:01:15;;;;;;;13.17;11.77;;;14.40;99.90;;;;;;5090447;28;20200;-55
2021/04/28 10:03:49;;;;;;;13.93;11.90;;;14.50;99.90;;;;;;5090401;28;20277;-56
2021/04/28 10:06:41;;;;;;;15.27;12.10;;;14.60;99.90;;;;;;5090246;28;20267;-54
2021/04/28 10:09:25;;;;;;;14.93;12.10;;;14.50;99.90;;;;;;5090075;28;20546;-55
2021/04/28 10:11:52;;;;;;;16.13;11.38;;;14.60;99.90;;;;;;5090127;28;20269;-54
2021/04/28 10:14:19;;;;;;;11.00;9.57;;;14.70;99.90;;;;;;5089597;28;20646;-56
2021/04/28 10:16:47;;;;;;;12.60;10.33;;;14.80;99.90;;;;;;5090089;28;20231;-54
2021/04/28 10:19:16;;;;;;;14.85;11.80;;;15.00;99.90;;;;;;5090003;28;20208;-54
2021/04/28 10:21:46;;;;;;;14.05;11.40;;;15.10;99.90;;;;;;5090098;28;20296;-54
2021/04/28 10:24:13;;;;;;;15.07;11.95;;;15.20;99.90;;;;;;5090072;28;20560;-55
2021/04/28 10:26:42;;;;;;;12.50;10.05;;;15.30;99.90;;;;;;5090045;28;20295;-54
2021/04/28 10:29:10;;;;;;;11.60;10.40;;;15.40;99.90;;;;;;5089712;28;20204;-51
2021/04/28 10:31:37;;;;;;;11.70;10.25;;;15.40;99.90;;;;;;5094364;28;20273;-64
2021/04/28 10:34:11;;;;;;;12.68;10.25;;;15.50;99.90;;;;;;5109900;28;20314;-53
2021/04/28 10:36:42;;;;;;;16.10;11.25;;;15.50;99.90;;;;;;5110389;28;20183;-55
2021/04/28 10:39:11;;;;;;;14.65;12.38;;;15.60;99.90;;;;;;5110471;28;20203;-55
2021/04/28 10:41:40;;;;;;;14.45;11.15;;;15.70;99.90;;;;;;5110338;28;20203;-56
2021/04/28 10:44:41;;;;;;;13.27;11.13;;;15.70;99.90;;;;;;5110218;28;20211;-54
2021/04/28 10:47:23;;;;;;;11.68;9.90;;;15.70;99.90;;;;;;5110069;28;20187;-53
2021/04/28 10:50:20;;;;;;;11.68;10.48;;;15.90;99.90;;;;;;5109689;28;20361;-53
2021/04/28 10:52:57;;;;;;;11.35;10.25;;;16.00;99.90;;;;;;5110416;28;20237;-55
2021/04/28 10:55:49;;;;;;;11.98;9.90;;;16.10;99.90;;;;;;5110093;28;20206;-55
2021/04/28 10:58:36;;;;;;;11.88;9.95;;;16.10;99.90;;;;;;5110182;28;20211;-53
2021/04/28 11:01:21;;;;;;;11.88;9.90;;;16.20;99.90;;;;;;5109758;28;20655;-55
2021/04/28 11:03:50;;;;;;;11.93;9.25;;;16.20;99.60;;;;;;5109036;28;20245;-54
2021/04/28 11:06:42;;;;;;;10.43;9.02;;;16.20;99.30;;;;;;5109203;28;20210;-58
2021/04/28 11:09:13;;;;;;;11.32;10.00;;;16.20;99.10;;;;;;5110362;28;20218;-55
2021/04/28 11:11:46;;;;;;;11.88;9.93;;;16.30;99.30;;;;;;5109812;28;20289;-52
2021/04/28 11:14:50;;;;;;;11.80;9.15;;;16.30;99.20;;;;;;5109244;28;20235;-52
2021/04/28 11:17:27;;;;;;;11.27;10.07;;;16.30;97.60;;;;;;5102983;28;20238;-55
2021/04/28 11:19:57;;;;;;;11.82;9.88;;;16.20;98.20;;;;;;5110004;28;20199;-55
2021/04/28 11:22:29;;;;;;;11.73;9.13;;;16.10;98.30;;;;;;5109992;28;20195;-56
2021/04/28 11:25:00;;;;;;;12.63;10.23;;;16.10;98.40;;;;;;5110572;28;20180;-56
2021/04/28 11:27:51;;;;;;;11.77;9.85;;;15.90;98.30;;;;;;5114044;28;20275;-56
2021/04/28 11:30:43;;;;;;;13.93;10.38;;;15.90;98.50;;;;;;5114006;28;20183;-55
2021/04/28 11:33:31;;;;;;;11.40;10.18;;;15.80;98.60;;;;;;5081298;28;20207;-55
2021/04/28 11:36:18;;;;;;;11.05;9.82;;;15.80;99.20;;;;;;5092818;28;20184;-56
2021/04/28 11:38:53;;;;;;;10.02;8.68;;;15.80;98.50;;;;;;5093328;28;20196;-55
2021/04/28 11:41:23;;;;;;;10.07;8.50;;;15.80;98.20;;;;;;5093256;28;20279;-55
2021/04/28 11:43:53;;;;;;;11.02;9.57;;;15.80;98.10;;;;;;5093311;28;20283;-54
2021/04/28 11:46:22;;;;;;;10.93;8.70;;;16.00;97.90;;;;;;5092680;28;20647;-55
2021/04/28 11:48:51;;;;;;;9.30;7.25;;;16.10;96.80;;;;;;5093011;28;20239;-55
2021/04/28 11:51:25;;;;;;;8.85;7.95;;;16.20;94.40;;;;;;5092736;28;20184;-57
2021/04/28 11:53:54;;;;;;;9.30;7.45;;;16.20;93.90;;;;;;5093161;28;20239;-57
2021/04/28 11:56:33;;;;;;;10.88;8.05;;;16.30;94.50;;;;;;5093082;28;20196;-58
2021/04/28 11:59:01;;;;;;;8.93;8.02;;;16.40;94.60;;;;;;5093077;28;20748;-53
2021/04/28 12:01:30;;;;;;;9.27;8.23;;;16.60;94.70;;;;;;5092761;28;20207;-54
2021/04/28 12:03:59;;;;;;;10.75;8.68;;;16.60;95.00;;;;;;5092865;28;20200;-61
2021/04/28 12:06:42;;;;;;;9.40;8.40;;;16.70;95.20;;;;;;5092921;28;20242;-59
2021/04/28 12:09:33;;;;;;;10.75;8.73;;;16.70;96.00;;;;;;5092616;28;20276;-59
2021/04/28 12:12:20;;;;;;;10.07;8.85;;;16.80;95.70;;;;;;5092767;28;20560;-59
2021/04/28 12:14:50;;;;;;;9.70;8.70;;;16.80;95.70;;;;;;5091989;28;20271;-58
2021/04/28 12:17:19;;;;;;;10.82;9.02;;;16.90;94.00;;;;;;5092446;28;20192;-60
2021/04/28 12:19:48;;;;;;;11.75;9.10;;;16.80;93.80;;;;;;5091723;28;20211;-59
2021/04/28 12:22:15;;;;;;;10.80;9.25;;;16.80;93.40;;;;;;5092425;28;20203;-60
2021/04/28 12:24:44;;;;;;;10.63;9.00;;;16.80;93.70;;;;;;5092110;28;20231;-59
2021/04/28 12:27:17;;;;;;;10.23;8.32;;;16.70;93.40;;;;;;5091826;28;20210;-59
2021/04/28 12:29:47;;;;;;;9.98;7.57;;;16.80;92.90;;;;;;5091768;28;20276;-55
2021/04/28 12:32:15;;;;;;;8.68;6.65;;;16.70;91.70;;;;;;5101553;28;20203;-60
2021/04/28 12:34:44;;;;;;;7.97;6.60;;;16.70;91.10;;;;;;5112171;28;20219;-60
2021/04/28 12:37:17;;;;;;;9.90;6.95;;;16.80;90.00;;;;;;5111872;28;20242;-59
2021/04/28 12:39:58;;;;;;;9.77;7.47;;;16.90;88.10;;;;;;5112372;28;20279;-58
2021/04/28 12:42:31;;;;;;;8.38;7.47;;;16.90;87.90;;;;;;5112785;28;20190;-58
2021/04/28 12:44:59;;;;;;;10.27;9.25;;;16.90;88.30;;;;;;5112270;28;20279;-60
2021/04/28 12:47:30;;;;;;;12.05;9.80;;;16.90;91.50;;;;;;5111782;28;20195;-58
2021/04/28 12:50:11;;;;;;;9.77;7.75;;;16.80;91.90;;;;;;5111897;28;20236;-58
2021/04/28 12:52:40;;;;;;;8.82;7.70;;;16.90;90.80;;;;;;5112369;28;20203;-58
2021/04/28 12:55:26;;;;;;;10.75;8.73;;;17.00;89.50;;;;;;5111951;28;20758;-58
2021/04/28 12:57:55;;;;;;;10.75;8.82;;;17.10;91.00;;;;;;5111438;28;20870;-58
2021/04/28 13:00:23;;;;;;;9.43;8.43;;;17.20;90.30;;;;;;5111814;28;20293;-58